createdAt,value
2022-10-28T00:00:56.496Z,99271.75
2022-10-28T00:03:23.171Z,99271.84
2022-10-28T00:05:49.754Z,99258.84
2022-10-28T00:08:16.342Z,99248.19
2022-10-28T00:10:42.994Z,99248.19
2022-10-28T00:13:09.579Z,99245.75
2022-10-28T00:15:36.117Z,99243.94
2022-10-28T00:18:03.286Z,99237.81
2022-10-28T00:20:31.961Z,99248.38
2022-10-28T00:22:58.568Z,99246.56
2022-10-28T00:25:25.494Z,99285.25
2022-10-28T00:27:52.961Z,99290.44
2022-10-28T00:30:20.381Z,99270.31
2022-10-28T00:32:47.188Z,99267.16
2022-10-28T00:35:13.953Z,99264.28
2022-10-28T00:37:40.819Z,99254.47
2022-10-28T00:40:08.644Z,99246.44
2022-10-28T00:42:35.214Z,99247.19
2022-10-28T00:45:02.845Z,99241.03
2022-10-28T00:47:41.667Z,99237.44
2022-10-28T00:50:33.348Z,99239.06
2022-10-28T00:53:04.865Z,99231.00
2022-10-28T00:55:32.966Z,99240.84
2022-10-28T00:58:01.155Z,99236.72
2022-10-28T01:00:28.090Z,99231.41
2022-10-28T01:02:55.565Z,99228.69
2022-10-28T01:05:26.895Z,99225.38
2022-10-28T01:07:57.440Z,99225.38
2022-10-28T01:10:33.768Z,99214.81
2022-10-28T01:13:06.379Z,99209.53
2022-10-28T01:15:46.912Z,99202.47
2022-10-28T01:18:28.544Z,99200.00
2022-10-28T01:21:33.028Z,99177.06
2022-10-28T01:24:27.970Z,99173.88
2022-10-28T01:27:23.807Z,99188.03
2022-10-28T01:30:16.634Z,99184.75
2022-10-28T01:33:06.555Z,99187.28
2022-10-28T01:36:11.632Z,99181.91
2022-10-28T01:38:53.183Z,99174.81
2022-10-28T01:41:34.943Z,99167.75
2022-10-28T01:44:19.147Z,99176.41
2022-10-28T01:47:12.163Z,99172.16
2022-10-28T01:49:47.378Z,99188.88
2022-10-28T01:52:16.897Z,99205.16
2022-10-28T01:54:48.936Z,99213.25
2022-10-28T01:57:18.355Z,99197.41
2022-10-28T01:59:47.318Z,99195.81
2022-10-28T02:02:19.261Z,99203.63
2022-10-28T02:04:45.843Z,99197.41
2022-10-28T02:07:13.386Z,99192.97
2022-10-28T02:10:04.917Z,99198.34
2022-10-28T02:12:35.536Z,99192.44
2022-10-28T02:15:28.715Z,99201.31
2022-10-28T02:18:11.690Z,99186.50
2022-10-28T02:20:45.009Z,99185.84
2022-10-28T02:23:28.420Z,99188.81
2022-10-28T02:26:08.038Z,99184.34
2022-10-28T02:28:49.101Z,99188.16
2022-10-28T02:31:38.128Z,99184.19
2022-10-28T02:34:10.057Z,99179.03
2022-10-28T02:36:43.519Z,99183.38
2022-10-28T02:39:11.555Z,99177.34
2022-10-28T02:41:48.804Z,99179.22
2022-10-28T02:44:22.218Z,99167.06
2022-10-28T02:46:51.136Z,99176.22
2022-10-28T02:49:17.685Z,99171.13
2022-10-28T02:52:00.888Z,99176.50
2022-10-28T02:54:49.602Z,99172.28
2022-10-28T02:57:19.719Z,99173.31
2022-10-28T03:00:01.396Z,99166.34
2022-10-28T03:02:28.755Z,99167.28
2022-10-28T03:04:58.703Z,99167.50
2022-10-28T03:07:25.594Z,99158.78
2022-10-28T03:09:52.298Z,99156.44
2022-10-28T03:12:18.931Z,99168.22
2022-10-28T03:14:45.506Z,99171.06
2022-10-28T03:17:14.995Z,99161.66
2022-10-28T03:19:42.789Z,99178.59
2022-10-28T03:22:10.105Z,99169.38
2022-10-28T03:24:36.851Z,99172.03
2022-10-28T03:27:07.224Z,99172.03
2022-10-28T03:29:33.776Z,99159.78
2022-10-28T03:32:00.515Z,99167.88
2022-10-28T03:34:27.090Z,99166.94
2022-10-28T03:36:53.629Z,99167.78
2022-10-28T03:39:22.321Z,99167.78
2022-10-28T03:41:48.904Z,99158.06
2022-10-28T03:44:15.463Z,99160.81
2022-10-28T03:46:42.103Z,99157.41
2022-10-28T03:49:08.672Z,99153.16
2022-10-28T03:51:39.485Z,99161.19
2022-10-28T03:54:06.171Z,99150.63
2022-10-28T03:56:32.804Z,99151.66
2022-10-28T03:58:59.628Z,99139.63
2022-10-28T04:01:27.014Z,99151.19
2022-10-28T04:03:53.839Z,99146.88
2022-10-28T04:06:20.383Z,99145.91
2022-10-28T04:08:47.022Z,99131.97
2022-10-28T04:11:13.606Z,99132.91
2022-10-28T04:13:40.164Z,99133.94
2022-10-28T04:16:07.117Z,99127.91
2022-10-28T04:18:35.371Z,99130.56
2022-10-28T04:21:02.631Z,99136.91
2022-10-28T04:23:29.346Z,99144.13
2022-10-28T04:25:56.423Z,99147.72
2022-10-28T04:28:26.683Z,99147.72
2022-10-28T04:30:53.471Z,99140.84
2022-10-28T04:33:20.029Z,99139.13
2022-10-28T04:35:46.708Z,99139.06
2022-10-28T04:38:14.618Z,99135.47
2022-10-28T04:40:41.528Z,99141.69
2022-10-28T04:43:09.983Z,99140.84
2022-10-28T04:45:37.554Z,99134.72
2022-10-28T04:48:04.349Z,99131.22
2022-10-28T04:50:32.303Z,99133.97
2022-10-28T04:52:58.883Z,99134.06
2022-10-28T04:55:25.484Z,99141.09
2022-10-28T04:57:56.599Z,99144.69
2022-10-28T05:00:24.450Z,99137.63
2022-10-28T05:02:51.296Z,99144.69
2022-10-28T05:05:18.312Z,99148.38
2022-10-28T05:07:45.873Z,99141.31
2022-10-28T05:10:15.443Z,99147.63
2022-10-28T05:12:43.807Z,99143.38
2022-10-28T05:15:11.941Z,99144.31
2022-10-28T05:17:40.369Z,99146.97
2022-10-28T05:20:08.590Z,99137.34
2022-10-28T05:22:35.216Z,99135.66
2022-10-28T05:25:01.963Z,99139.13
2022-10-28T05:27:28.545Z,99136.59
2022-10-28T05:29:55.289Z,99129.53
2022-10-28T05:32:22.079Z,99130.56
2022-10-28T05:34:49.486Z,99124.56
2022-10-28T05:37:16.135Z,99114.09
2022-10-28T05:39:42.699Z,99123.00
2022-10-28T05:42:09.271Z,99121.31
2022-10-28T05:44:35.909Z,99119.75
2022-10-28T05:47:03.385Z,99118.13
2022-10-28T05:49:29.916Z,99123.41
2022-10-28T05:51:56.487Z,99119.75
2022-10-28T05:54:23.151Z,99122.47
2022-10-28T05:56:49.856Z,99121.59
2022-10-28T05:59:16.421Z,99120.84
2022-10-28T06:01:43.571Z,99119.16
2022-10-28T06:04:10.431Z,99119.25
2022-10-28T06:06:37.538Z,99120.19
2022-10-28T06:09:04.314Z,99123.00
2022-10-28T06:11:29.348Z,99128.38
2022-10-28T06:13:55.939Z,99126.75
2022-10-28T06:16:22.517Z,99131.28
2022-10-28T06:18:49.321Z,99144.53
2022-10-28T06:21:16.444Z,99151.69
2022-10-28T06:23:45.087Z,99152.63
2022-10-28T06:26:12.976Z,99155.25
2022-10-28T06:28:39.610Z,99165.91
2022-10-28T06:31:07.832Z,99165.16
2022-10-28T06:33:35.581Z,99160.72
2022-10-28T06:36:02.537Z,99158.94
2022-10-28T06:38:29.887Z,99155.38
2022-10-28T06:40:58.133Z,99158.09
2022-10-28T06:43:24.699Z,99158.09
2022-10-28T06:45:55.118Z,99162.41
2022-10-28T06:48:27.707Z,99153.50
2022-10-28T06:50:58.060Z,99156.88
2022-10-28T06:53:25.432Z,99156.00
2022-10-28T06:55:53.997Z,99153.38
2022-10-28T06:58:20.620Z,99160.34
2022-10-28T07:00:47.634Z,99158.66
2022-10-28T07:03:14.509Z,99167.34
2022-10-28T07:05:41.194Z,99163.66
2022-10-28T07:08:09.333Z,99162.53
2022-10-28T07:10:35.927Z,99168.47
2022-10-28T07:13:02.590Z,99173.56
2022-10-28T07:15:29.179Z,99183.16
2022-10-28T07:17:58.514Z,99190.91
2022-10-28T07:20:27.281Z,99191.56
2022-10-28T07:23:03.360Z,99196.56
2022-10-28T07:25:31.736Z,99192.91
2022-10-28T07:27:59.509Z,99199.78
2022-10-28T07:30:27.351Z,99198.84
2022-10-28T07:32:55.558Z,99196.78
2022-10-28T07:35:22.511Z,99193.84
2022-10-28T07:37:49.100Z,99196.13
2022-10-28T07:40:15.776Z,99196.69
2022-10-28T07:42:42.389Z,99193.53
2022-10-28T07:45:09.310Z,99194.81
2022-10-28T07:47:37.551Z,99194.34
2022-10-28T07:50:06.283Z,99206.41
2022-10-28T07:52:33.699Z,99205.31
2022-10-28T07:55:00.397Z,99195.50
2022-10-28T07:57:28.088Z,99197.94
2022-10-28T07:59:54.648Z,99189.06
2022-10-28T08:02:23.737Z,99184.53
2022-10-28T08:04:50.833Z,99188.59
2022-10-28T08:07:20.049Z,99194.72
2022-10-28T08:09:47.324Z,99188.97
2022-10-28T08:12:15.751Z,99198.16
2022-10-28T08:14:42.706Z,99181.63
2022-10-28T08:17:09.969Z,99197.81
2022-10-28T08:19:38.863Z,99198.47
2022-10-28T08:22:05.469Z,99213.28
2022-10-28T08:24:32.099Z,99206.72
2022-10-28T08:26:58.751Z,99208.31
2022-10-28T08:29:29.102Z,99219.25
2022-10-28T08:31:57.826Z,99218.25
2022-10-28T08:34:29.699Z,99207.00
2022-10-28T08:36:57.710Z,99200.44
2022-10-28T08:39:24.625Z,99197.66
2022-10-28T08:42:17.307Z,62137.28
2022-10-28T08:45:17.787Z,62137.28
2022-10-28T08:47:55.782Z,62137.28
2022-10-28T08:50:25.600Z,62137.28
2022-10-28T08:53:00.573Z,62137.28
2022-10-28T08:55:33.390Z,62137.28
2022-10-28T08:58:07.428Z,62137.28
2022-10-28T09:00:34.722Z,99197.66
2022-10-28T09:03:18.884Z,62137.28
2022-10-28T09:05:49.906Z,62137.28
2022-10-28T09:08:41.413Z,62137.28
2022-10-28T09:11:37.081Z,62137.28
2022-10-28T09:14:22.493Z,62137.28
2022-10-28T09:17:13.502Z,62137.28
2022-10-28T09:19:52.270Z,62137.28
2022-10-28T09:22:45.275Z,62137.28
2022-10-28T09:25:48.837Z,62137.28
2022-10-28T09:28:35.080Z,62137.28
2022-10-28T09:31:09.956Z,62137.28
2022-10-28T09:33:48.582Z,62137.28
2022-10-28T09:36:35.013Z,62137.28
2022-10-28T09:39:04.531Z,62137.28
2022-10-28T09:41:38.920Z,62137.28
2022-10-28T09:44:29.109Z,62137.28
2022-10-28T09:47:00.353Z,62137.28
2022-10-28T09:49:36.487Z,62137.28
2022-10-28T09:52:10.978Z,62137.28
2022-10-28T09:54:48.294Z,62137.28
2022-10-28T09:57:17.247Z,62137.28
2022-10-28T09:59:44.561Z,62137.28
2022-10-28T10:02:33.319Z,62137.28
2022-10-28T10:05:01.955Z,62137.28
2022-10-28T10:07:40.201Z,62137.28
2022-10-28T10:10:22.281Z,62137.28
2022-10-28T10:12:55.960Z,62137.28
2022-10-28T10:15:45.621Z,62137.28
2022-10-28T10:18:27.078Z,62137.28
2022-10-28T10:20:57.551Z,62137.28
2022-10-28T10:23:36.986Z,62137.28
2022-10-28T10:26:11.203Z,62137.28
2022-10-28T10:28:45.476Z,62137.28
2022-10-28T10:31:22.215Z,62137.28
2022-10-28T10:33:58.861Z,62137.28
2022-10-28T10:36:28.986Z,62137.28
2022-10-28T10:39:20.282Z,62137.28
2022-10-28T10:41:46.860Z,62137.28
2022-10-28T10:44:24.529Z,62137.28
2022-10-28T10:46:58.886Z,62137.28
2022-10-28T10:49:28.798Z,62137.28
2022-10-28T10:51:57.293Z,62137.28
2022-10-28T10:54:26.581Z,62137.28
2022-10-28T10:56:53.809Z,62137.28
2022-10-28T10:59:26.403Z,62137.28
2022-10-28T11:01:54.528Z,62137.28
2022-10-28T11:04:23.581Z,62137.28
2022-10-28T11:06:53.424Z,62137.28
2022-10-28T11:09:32.246Z,62137.28
2022-10-28T11:11:58.894Z,62137.28
2022-10-28T11:14:32.907Z,62137.28
2022-10-28T11:17:02.281Z,62137.28
2022-10-28T11:19:35.470Z,62137.28
2022-10-28T11:22:30.788Z,62137.28
2022-10-28T11:25:06.434Z,62137.28
2022-10-28T11:27:42.925Z,62137.28
2022-10-28T11:30:15.775Z,62137.28
2022-10-28T11:33:08.284Z,62137.28
2022-10-28T11:35:52.392Z,62137.28
2022-10-28T11:38:49.546Z,62137.28
2022-10-28T11:41:34.278Z,62137.28
2022-10-28T11:44:05.095Z,62137.28
2022-10-28T11:46:48.194Z,62137.28
2022-10-28T11:50:00.076Z,62137.28
2022-10-28T11:52:32.441Z,62137.28
2022-10-28T11:55:15.515Z,62137.28
2022-10-28T11:57:48.707Z,62137.28
2022-10-28T12:00:44.942Z,62137.28
2022-10-28T12:03:30.282Z,62137.28
2022-10-28T12:06:24.390Z,62137.28
2022-10-28T12:09:10.131Z,62137.28
2022-10-28T12:12:14.547Z,62137.28
2022-10-28T12:15:15.277Z,62137.28
2022-10-28T12:17:48.031Z,62137.28
2022-10-28T12:20:33.643Z,62137.28
2022-10-28T12:23:12.997Z,62137.28
2022-10-28T12:25:44.427Z,62137.28
2022-10-28T12:28:24.302Z,62137.28
2022-10-28T12:30:52.964Z,62137.28
2022-10-28T12:33:22.832Z,62137.28
2022-10-28T12:36:10.011Z,62137.28
2022-10-28T12:38:55.920Z,62137.28
2022-10-28T12:41:28.505Z,62137.28
2022-10-28T12:44:18.767Z,62137.28
2022-10-28T12:49:35.074Z,62137.28
2022-10-28T12:52:13.324Z,62137.28
2022-10-28T12:54:53.662Z,62137.28
2022-10-28T12:57:23.826Z,62137.28
2022-10-28T13:00:07.612Z,62137.28
2022-10-28T13:03:00.491Z,62137.28
2022-10-28T13:05:35.307Z,62137.28
2022-10-28T13:08:27.183Z,62137.28
2022-10-28T13:11:02.834Z,62137.28
2022-10-28T13:14:03.529Z,62137.28
2022-10-28T13:16:48.479Z,62137.28
2022-10-28T13:19:28.539Z,62137.28
2022-10-28T13:22:04.238Z,62137.28
2022-10-28T13:24:47.857Z,62137.28
2022-10-28T13:27:15.485Z,62137.28
2022-10-28T13:29:44.090Z,62137.28
2022-10-28T13:32:32.763Z,62137.28
2022-10-28T13:35:22.561Z,62137.28
2022-10-28T13:37:51.708Z,62137.28
2022-10-28T13:40:43.407Z,62137.28
2022-10-28T13:43:20.682Z,99197.66
2022-10-28T13:45:55.707Z,99113.94
2022-10-28T13:48:45.080Z,99107.25
2022-10-28T13:51:11.644Z,99110.88
2022-10-28T13:53:47.290Z,99117.25
2022-10-28T13:56:36.802Z,99114.38
2022-10-28T13:59:14.428Z,99115.91
2022-10-28T14:01:56.494Z,62137.28
2022-10-28T14:04:34.418Z,99123.03
2022-10-28T14:07:03.364Z,99109.94
2022-10-28T14:09:32.866Z,73969.69
2022-10-28T14:12:14.805Z,99110.94
2022-10-28T14:15:06.589Z,99111.59
2022-10-28T14:17:36.138Z,99110.56
2022-10-28T14:20:06.904Z,99105.72
2022-10-28T14:22:36.734Z,99111.94
2022-10-28T14:25:23.812Z,99107.22
2022-10-28T14:27:50.470Z,99120.00
2022-10-28T14:30:21.689Z,99123.88
2022-10-28T14:33:01.193Z,99120.16
2022-10-28T14:35:41.366Z,99120.50
2022-10-28T14:38:50.273Z,99114.94
2022-10-28T14:41:35.753Z,99112.56
2022-10-28T14:44:12.331Z,99124.13
2022-10-28T14:46:38.905Z,99128.28
2022-10-28T15:10:35.463Z,99127.00
2022-10-28T15:13:03.676Z,99133.16
2022-10-28T15:15:32.722Z,99131.13
2022-10-28T15:18:02.833Z,99142.50
2022-10-28T15:20:30.993Z,99152.47
2022-10-28T15:23:20.662Z,99145.38
2022-10-28T15:26:05.056Z,99146.31
2022-10-28T15:28:31.731Z,99137.38
2022-10-28T15:30:58.362Z,99146.19
2022-10-28T15:33:31.024Z,99137.22
2022-10-28T15:36:27.159Z,99142.81
2022-10-28T15:39:15.332Z,99154.75
2022-10-28T15:41:43.087Z,99152.84
2022-10-28T15:44:30.649Z,99156.97
2022-10-28T15:46:58.831Z,99163.06
2022-10-28T15:49:38.222Z,99169.03
2022-10-28T15:52:17.030Z,99165.25
2022-10-28T15:55:01.003Z,62137.28
2022-10-28T15:57:45.950Z,99165.25
2022-10-28T16:00:30.960Z,99168.88
2022-10-28T16:03:02.516Z,99175.97
2022-10-28T16:05:43.022Z,99170.81
2022-10-28T16:08:21.462Z,99173.53
2022-10-28T16:10:54.255Z,99173.56
2022-10-28T16:13:26.266Z,99178.91
2022-10-28T16:15:58.997Z,99176.13
2022-10-28T16:18:27.919Z,99176.03
2022-10-28T16:20:55.999Z,99174.19
2022-10-28T16:23:25.540Z,99183.91
2022-10-28T16:25:52.293Z,99184.59
2022-10-28T16:28:24.752Z,99186.16
2022-10-28T16:30:56.570Z,99196.81
2022-10-28T16:33:32.044Z,99198.63
2022-10-28T16:35:58.854Z,99199.63
2022-10-28T16:38:25.506Z,99192.44
2022-10-28T16:40:53.119Z,99200.59
2022-10-28T16:43:22.798Z,99192.81
2022-10-28T16:45:50.801Z,99198.28
2022-10-28T16:48:19.459Z,99200.22
2022-10-28T16:50:51.814Z,99202.31
2022-10-28T16:53:18.915Z,99209.56
2022-10-28T16:55:45.487Z,99207.31
2022-10-28T16:58:12.814Z,99212.34
2022-10-28T17:00:40.200Z,99203.06
2022-10-28T17:03:07.050Z,99216.91
2022-10-28T17:05:34.017Z,99212.84
2022-10-28T17:08:02.416Z,99213.22
2022-10-28T17:10:31.284Z,99218.94
2022-10-28T17:12:58.121Z,99214.16
2022-10-28T17:15:24.819Z,99224.13
2022-10-28T17:17:52.654Z,99221.69
2022-10-28T17:20:20.485Z,99225.75
2022-10-28T17:22:47.457Z,99231.72
2022-10-28T17:25:14.459Z,99232.50
2022-10-28T17:27:42.222Z,99242.22
2022-10-28T17:30:09.385Z,99234.75
2022-10-28T17:32:36.033Z,99235.78
2022-10-28T17:35:02.686Z,99234.31
2022-10-28T17:37:29.259Z,99233.34
2022-10-28T17:39:57.027Z,99237.84
2022-10-28T17:42:24.091Z,99237.97
2022-10-28T17:44:50.680Z,99239.03
2022-10-28T17:47:17.368Z,99235.09
2022-10-28T17:49:43.945Z,99243.47
2022-10-28T17:52:10.497Z,99239.09
2022-10-28T17:54:37.104Z,99245.41
2022-10-28T17:57:03.771Z,99248.28
2022-10-28T17:59:30.354Z,99250.75
2022-10-28T18:01:57.119Z,99253.19
2022-10-28T18:04:26.364Z,99259.50
2022-10-28T18:06:54.584Z,99260.25
2022-10-28T18:09:21.341Z,99259.88
2022-10-28T18:11:48.563Z,99261.00
2022-10-28T18:14:15.917Z,99266.31
2022-10-28T18:16:42.706Z,99261.34
2022-10-28T18:19:10.220Z,99260.03
2022-10-28T18:21:36.802Z,99267.19
2022-10-28T18:24:04.003Z,99274.53
2022-10-28T18:26:35.380Z,99279.38
2022-10-28T18:29:05.383Z,99289.03
2022-10-28T18:31:33.385Z,99290.34
2022-10-28T18:34:01.118Z,99288.91
2022-10-28T18:36:30.719Z,99290.19
2022-10-28T18:38:57.848Z,99301.16
2022-10-28T18:41:26.845Z,99291.84
2022-10-28T18:43:58.364Z,99293.88
2022-10-28T18:46:28.366Z,99290.84
2022-10-28T18:48:58.094Z,99290.84
2022-10-28T18:51:24.917Z,99286.03
2022-10-28T18:53:52.079Z,99289.97
2022-10-28T18:56:20.816Z,99283.22
2022-10-28T18:58:52.321Z,99278.50
2022-10-28T19:01:24.557Z,99286.78
2022-10-28T19:03:59.179Z,99287.84
2022-10-28T19:06:29.796Z,99289.56
2022-10-28T19:08:58.854Z,99288.72
2022-10-28T19:11:30.167Z,99298.72
2022-10-28T19:13:58.867Z,99294.69
2022-10-28T19:16:26.681Z,99302.16
2022-10-28T19:18:57.436Z,99298.78
2022-10-28T19:21:25.077Z,99300.72
2022-10-28T19:23:51.674Z,99309.00
2022-10-28T19:26:18.847Z,99304.16
2022-10-28T19:28:47.238Z,99295.47
2022-10-28T19:31:17.194Z,99284.47
2022-10-28T19:33:45.429Z,99278.63
2022-10-28T19:36:18.555Z,99283.94
2022-10-28T19:38:46.714Z,99280.13
2022-10-28T19:41:18.835Z,99288.63
2022-10-28T19:43:46.494Z,99289.94
2022-10-28T19:46:18.573Z,99302.34
2022-10-28T19:48:47.054Z,99296.31
2022-10-28T19:51:20.096Z,99288.56
2022-10-28T19:53:51.364Z,99296.00
2022-10-28T19:56:19.559Z,99299.00
2022-10-28T19:58:49.092Z,99301.97
2022-10-28T20:01:16.776Z,99303.03
2022-10-28T20:03:48.982Z,99300.50
2022-10-28T20:06:17.961Z,99309.72
2022-10-28T20:08:46.544Z,99301.22
2022-10-28T20:11:18.892Z,99314.28
2022-10-28T20:13:52.697Z,99317.13
2022-10-28T20:16:19.581Z,99318.09
2022-10-28T20:18:46.396Z,99322.66
2022-10-28T20:21:15.656Z,99315.00
2022-10-28T20:23:46.640Z,99324.13
2022-10-28T20:26:13.533Z,99323.53
2022-10-28T20:28:40.160Z,99329.97
2022-10-28T20:31:12.299Z,99330.19
2022-10-28T20:33:41.016Z,99336.75
2022-10-28T20:36:36.125Z,99343.44
2022-10-28T20:39:04.544Z,99343.53
2022-10-28T20:41:33.265Z,99350.72
2022-10-28T20:44:00.253Z,99346.47
2022-10-28T20:46:27.150Z,99361.00
2022-10-28T20:48:54.350Z,99359.91
2022-10-28T20:51:21.589Z,99360.00
2022-10-28T20:53:48.253Z,99368.28
2022-10-28T20:56:20.055Z,99371.03
2022-10-28T20:58:47.116Z,99371.97
2022-10-28T21:01:15.583Z,99369.53
2022-10-28T21:03:43.956Z,99372.06
2022-10-28T21:06:11.461Z,99374.91
2022-10-28T21:08:38.393Z,99374.28
2022-10-28T21:11:06.539Z,99372.66
2022-10-28T21:13:33.819Z,99369.34
2022-10-28T21:16:05.576Z,99363.41
2022-10-28T21:18:32.616Z,99366.06
2022-10-28T21:21:00.352Z,99364.56
2022-10-28T21:23:27.945Z,99357.69
2022-10-28T21:25:56.493Z,99350.81
2022-10-28T21:28:23.490Z,99349.09
2022-10-28T21:30:50.123Z,99354.47
2022-10-28T21:33:18.859Z,99357.53
2022-10-28T21:35:54.312Z,99358.50
2022-10-28T21:38:20.865Z,99348.00
2022-10-28T21:40:47.434Z,99349.91
2022-10-28T21:43:14.174Z,99343.66
2022-10-28T21:45:40.732Z,99351.72
2022-10-28T21:48:07.270Z,99350.84
2022-10-28T21:50:34.267Z,99346.44
2022-10-28T21:53:03.930Z,99344.63
2022-10-28T21:55:41.992Z,99350.66
2022-10-28T21:58:13.623Z,99344.91
2022-10-28T22:00:40.251Z,99341.44
2022-10-28T22:03:06.785Z,99341.06
2022-10-28T22:05:33.421Z,99351.00
2022-10-28T22:08:03.023Z,99348.66
2022-10-28T22:10:31.483Z,99343.66
2022-10-28T22:12:58.081Z,99342.16
2022-10-28T22:15:24.644Z,99349.22
2022-10-28T22:17:51.234Z,99350.94
2022-10-28T22:20:18.153Z,99349.22
2022-10-28T22:22:44.732Z,99346.91
2022-10-28T22:25:11.353Z,99346.25
2022-10-28T22:27:38.140Z,99347.28
2022-10-28T22:30:05.253Z,99352.84
2022-10-28T22:32:31.796Z,99361.84
2022-10-28T22:34:58.367Z,99359.28
2022-10-28T22:37:24.913Z,99361.09
2022-10-28T22:39:51.447Z,99349.00
2022-10-28T22:42:18.028Z,99341.25
2022-10-28T22:44:44.590Z,99340.63
2022-10-28T22:47:11.228Z,99330.16
2022-10-28T22:49:37.784Z,99341.84
2022-10-28T22:52:04.371Z,99341.09
2022-10-28T22:54:30.911Z,99338.75
2022-10-28T22:56:57.477Z,99337.88
2022-10-28T22:59:24.059Z,99334.28
2022-10-28T23:01:52.021Z,99331.97
2022-10-28T23:04:18.643Z,99322.63
2022-10-28T23:06:45.222Z,99326.28
2022-10-28T23:09:11.743Z,99318.44
2022-10-28T23:11:38.375Z,99314.22
2022-10-28T23:14:05.003Z,99316.00
2022-10-28T23:16:31.536Z,99304.81
2022-10-28T23:19:00.816Z,99308.38
2022-10-28T23:21:27.486Z,99315.53
2022-10-28T23:23:59.466Z,99328.28
2022-10-28T23:26:28.018Z,99319.78
2022-10-28T23:28:56.935Z,99329.75
2022-10-28T23:31:24.153Z,99333.34
2022-10-28T23:33:51.025Z,99320.97
2022-10-28T23:36:18.010Z,99313.16
2022-10-28T23:38:44.654Z,99320.47
2022-10-28T23:41:15.718Z,99324.94
2022-10-28T23:43:42.843Z,99326.72
2022-10-28T23:46:10.243Z,99324.53
2022-10-28T23:48:36.838Z,99330.00
2022-10-28T23:51:03.625Z,99333.78
2022-10-28T23:53:30.910Z,99339.06
2022-10-28T23:55:57.938Z,99347.34
2022-10-28T23:58:24.762Z,99349.22
